Tombarra — MPRD6 — position and weather

sailwx.info

Track history (hours):
 
Tides and Currents Weather Stations Pressure Air Temp Water Temp Dewpoint Dewpoint Depression Visibility Wind Speed Wind Dir Waves Ship Positions

Tombarra

Last reported at 2016-May-26 16:23 UTC. Time now 2016-May-29 03:56 UTC.
Position N 49°43' W 007°25'.

Length 199 m; draft 10.5 m.

Type: Ship. MMSI: 232971000.

Date/timePositionNaut miles runAvg speedWind from/ knotsBaromVisibWave heightAir tempDewpointWater temp
2016-May-26 16:23N 49°43' W 007°25'8416.5
2016-May-26 11:19N 49°43' W 005°16'1417.5
2016-May-26 10:31N 49°44' W 004°54'1717.4
2016-May-26 09:33N 49°49' W 004°29'1717.0
2016-May-26 08:33N 49°54' W 004°04'1616.4
2016-May-26 07:34N 49°59' W 003°40'1716.8
2016-May-26 06:34N 50°04' W 003°15'1818.0
2016-May-26 05:33N 50°09' W 002°48'6020.1
2016-May-26 02:33N 50°28' W 001°18'1616.2
2016-May-26 01:34N 50°38' W 000°58'9 9.4
2016-May-26 00:33N 50°45' W 001°08'9 9.1
2016-May-25 23:33N 50°50' W 001°20'4 3.7
2016-May-25 22:32N 50°53' W 001°24'0 0.0
2016-May-25 16:32N 50°53' W 001°24'0 0.0
2016-May-25 15:32N 50°53' W 001°24'0 0.0
2016-May-25 14:32N 50°53' W 001°24'0 0.0
2016-May-25 13:23N 50°53' W 001°24'0 0.0
2016-May-25 12:20N 50°53' W 001°24'0 0.0
2016-May-25 08:20N 50°53' W 001°24'0 0.0
2016-May-25 07:26N 50°53' W 001°24'0 0.6
2016-May-25 06:33N 50°53' W 001°23'6 6.0
2016-May-25 05:33N 50°48' W 001°18'1111.2
2016-May-25 04:34N 50°44' W 001°02'8 8.5
2016-May-25 03:33N 50°36' W 000°55'1111.0
2016-May-25 02:33N 50°34' W 000°38'1212.0
2016-May-25 01:33N 50°32' W 000°19'1111.5
2016-May-25 00:33N 50°32' W 000°01'1211.8
2016-May-24 23:33N 50°34' E 000°17'1211.6
2016-May-24 22:32N 50°38' E 000°35'2311.5
2016-May-24 20:32N 50°51' E 001°05'1212.5
2016-May-24 19:33N 50°59' E 001°19'1515.0
2016-May-24 18:33N 51°09' E 001°37'1515.1
2016-May-24 17:33N 51°20' E 001°53'1111.3
2016-May-24 16:33N 51°22' E 002°11'1313.2
2016-May-24 15:32N 51°23' E 002°33'1212.1
2016-May-24 14:33N 51°22' E 002°52'1212.4
2016-May-24 13:34N 51°22' E 003°11'2 2.0
2016-May-24 12:34N 51°20' E 003°13'1 1.1
2016-May-24 11:33N 51°19' E 003°14'0 0.0
2016-May-24 10:33N 51°19' E 003°14'0 0.0
2016-May-24 09:33N 51°19' E 003°14'0 0.0
2016-May-24 08:33N 51°19' E 003°14'0 0.0
2016-May-24 07:33N 51°19' E 003°14'0 0.0
2016-May-24 06:33N 51°19' E 003°14'0 0.0
2016-May-24 05:33N 51°19' E 003°14'0 0.0
2016-May-24 04:33N 51°19' E 003°14'0 0.0
2016-May-24 03:33N 51°19' E 003°14'0 0.0
2016-May-24 02:33N 51°19' E 003°14'0 0.0
2016-May-24 01:33N 51°19' E 003°14'0 0.0
2016-May-24 00:33N 51°19' E 003°14'0 0.0
2016-May-23 23:33N 51°19' E 003°14'0 0.0
2016-May-23 22:33N 51°19' E 003°14'0 0.0
2016-May-23 21:33N 51°19' E 003°14'0 0.0
2016-May-23 20:33N 51°19' E 003°14'0 0.0
2016-May-23 19:33N 51°19' E 003°14'0 0.0
2016-May-23 18:33N 51°19' E 003°14'0 0.0
2016-May-23 17:33N 51°19' E 003°14'0 0.0
2016-May-23 16:30N 51°19' E 003°14'0 0.0
2016-May-23 15:33N 51°19' E 003°14'0 0.0
2016-May-23 14:33N 51°19' E 003°14'0 0.0
2016-May-23 13:27N 51°19' E 003°14'0 0.0
2016-May-23 12:33N 51°19' E 003°14'0 0.0
2016-May-23 11:33N 51°19' E 003°14'0 0.0
2016-May-23 10:33N 51°19' E 003°14'1 1.1
2016-May-23 09:33N 51°20' E 003°13'0 0.2
2016-May-23 08:33N 51°20' E 003°13'1110.6
2016-May-23 07:34N 51°25' E 002°58'10 9.7
2016-May-23 06:33N 51°26' E 002°42'9 8.8
2016-May-23 05:31N 51°35' E 002°42'1010.1
2016-May-23 04:30N 51°45' E 002°45'1010.3
2016-May-23 03:33N 51°55' E 002°41'3510.7
2016-May-23 00:18N 52°23' E 003°14'1012.0
2016-May-22 23:29N 52°31' E 003°23'1213.1
2016-May-22 22:33N 52°41' E 003°35'1413.9
2016-May-22 21:33N 52°52' E 003°50'1613.8
2016-May-22 20:22N 53°03' E 004°10'1112.7
2016-May-22 19:32N 53°10' E 004°23'1313.3
2016-May-22 18:33N 53°23' E 004°31'1413.9
2016-May-22 17:33N 53°35' E 004°39'1414.4
2016-May-22 16:33N 53°49' E 004°47'1515.0
2016-May-22 15:32N 54°03' E 004°56'1515.2
2016-May-22 14:33N 54°17' E 005°05'27213.9
2016-May-21 19:03N 57°46' E 010°17'611.7
2016-May-21 18:34N 57°48' E 010°27'1211.6
2016-May-21 17:33N 57°49' E 010°49'1211.6
2016-May-21 16:34N 57°45' E 011°09'1312.6
2016-May-21 15:33N 57°38' E 011°29'10 9.8
2016-May-21 14:33N 57°41' E 011°47'3 2.8
2016-May-21 13:34N 57°41' E 011°52'0 0.0
2016-May-21 12:34N 57°41' E 011°52'0 0.0
2016-May-21 11:34N 57°41' E 011°52'0 0.0
2016-May-21 10:33N 57°41' E 011°52'0 0.0
2016-May-21 09:33N 57°41' E 011°52'0 0.0
2016-May-21 08:34N 57°41' E 011°52'0 0.0
2016-May-21 07:34N 57°41' E 011°52'0 0.0
2016-May-21 06:30N 57°41' E 011°52'0 0.0
2016-May-21 05:33N 57°41' E 011°52'0 0.0
2016-May-21 04:34N 57°41' E 011°52'0 0.0
2016-May-21 03:33N 57°41' E 011°52'0 0.0
2016-May-21 02:34N 57°41' E 011°52'0 0.0
2016-May-21 01:34N 57°41' E 011°52'0 0.0
2016-May-21 00:33N 57°41' E 011°52'0 0.0
2016-May-20 23:34N 57°41' E 011°52'0 0.0
2016-May-20 22:33N 57°41' E 011°52'0 0.0
2016-May-20 21:33N 57°41' E 011°52'0 0.0
2016-May-20 20:33N 57°41' E 011°52'0 0.0
2016-May-20 19:33N 57°41' E 011°52'0 0.0
2016-May-20 18:34N 57°41' E 011°52'0 0.0
2016-May-20 17:34N 57°41' E 011°52'0 0.0
2016-May-20 16:34N 57°41' E 011°52'0 0.0
2016-May-20 15:34N 57°41' E 011°52'0 0.0
2016-May-20 14:33N 57°41' E 011°52'0 0.0
2016-May-20 13:33N 57°41' E 011°52'0 0.0
2016-May-20 12:33N 57°41' E 011°52'4 3.9
2016-May-20 11:33N 57°39' E 011°46'1010.3
2016-May-20 10:33N 57°39' E 011°26'7 6.6
2016-May-20 09:33N 57°42' E 011°16'9 8.6
2016-May-20 08:33N 57°47' E 011°02'10 9.9
2016-May-20 07:33N 57°48' E 010°44'1010.4
2016-May-20 06:33N 57°47' E 010°24'1211.5
2016-May-20 05:33N 57°44' E 010°03'1211.7
2016-May-20 04:29N 57°39' E 009°42'1210.8
2016-May-20 03:20N 57°37' E 009°19'11610.7
2016-May-19 16:27N 55°59' E 007°23'1011.4
2016-May-19 15:33N 55°49' E 007°17'1111.4
2016-May-19 14:33N 55°39' E 007°10'1111.3
2016-May-19 13:33N 55°28' E 007°04'1111.1
2016-May-19 12:33N 55°17' E 007°00'1111.2
2016-May-19 11:33N 55°06' E 007°00'1211.5
2016-May-19 10:33N 54°54' E 007°00'1111.5
2016-May-19 09:33N 54°43' E 007°00'1111.3
2016-May-19 08:33N 54°33' E 007°09'1111.5
2016-May-19 07:33N 54°23' E 007°18'1111.4
2016-May-19 06:33N 54°13' E 007°28'1111.2
2016-May-19 05:33N 54°03' E 007°37'1111.2
2016-May-19 04:33N 53°53' E 007°46'1312.6
2016-May-19 03:34N 53°49' E 008°07'1515.2
2016-May-19 02:34N 53°39' E 008°25'7 6.6
2016-May-19 01:34N 53°34' E 008°33'0 0.4
2016-May-19 00:33N 53°35' E 008°33'0 0.0
2016-May-18 23:33N 53°35' E 008°33'0 0.0
2016-May-18 22:33N 53°35' E 008°33'0 0.0
2016-May-18 21:33N 53°35' E 008°33'0 0.0
2016-May-18 20:33N 53°35' E 008°33'0 0.0
2016-May-18 19:33N 53°35' E 008°33'0 0.0
2016-May-18 18:33N 53°35' E 008°33'0 0.0
2016-May-18 17:33N 53°35' E 008°33'0 0.0
2016-May-18 16:33N 53°35' E 008°33'0 0.0
2016-May-18 15:33N 53°35' E 008°33'0 0.0
2016-May-18 14:33N 53°35' E 008°33'0 0.0
2016-May-18 13:33N 53°35' E 008°33'0 0.0
2016-May-18 12:33N 53°35' E 008°33'0 0.0
2016-May-18 11:33N 53°35' E 008°33'0 0.0
2016-May-18 10:33N 53°35' E 008°33'0 0.0
2016-May-18 09:33N 53°35' E 008°33'0 0.0
2016-May-18 08:33N 53°35' E 008°33'0 0.0
2016-May-18 07:33N 53°35' E 008°33'0 0.0
2016-May-18 06:33N 53°35' E 008°33'0 0.0
2016-May-18 05:33N 53°35' E 008°33'0 0.0
2016-May-18 04:33N 53°35' E 008°33'0 0.0
2016-May-18 03:33N 53°35' E 008°33'0 0.0
2016-May-18 02:33N 53°35' E 008°33'0 0.0
2016-May-18 01:33N 53°35' E 008°33'0 0.0
2016-May-18 00:33N 53°35' E 008°33'0 0.0
2016-May-17 23:33N 53°35' E 008°33'0 0.0
2016-May-17 22:33N 53°35' E 008°33'0 0.3
2016-May-17 21:33N 53°34' E 008°33'1 0.5
2016-May-17 20:33N 53°34' E 008°33'1211.8
2016-May-17 19:33N 53°42' E 008°19'1514.9
2016-May-17 18:33N 53°51' E 007°59'9 9.0
2016-May-17 17:33N 53°53' E 007°44'5 4.7
2016-May-17 16:29N 53°55' E 007°52'0 0.1
2016-May-17 15:32N 53°55' E 007°52'0 0.0
2016-May-17 14:29N 53°55' E 007°52'0 0.0
2016-May-17 13:32N 53°55' E 007°52'0 0.0
2016-May-17 12:32N 53°55' E 007°52'0 0.0
2016-May-17 11:29N 53°55' E 007°52'0 0.0
2016-May-17 10:32N 53°55' E 007°52'0 0.0
2016-May-17 09:32N 53°55' E 007°52'0 0.0
2016-May-17 08:32N 53°55' E 007°52'0 0.0
2016-May-17 07:32N 53°55' E 007°52'0 0.0
2016-May-17 06:32N 53°55' E 007°52'0 0.0
2016-May-17 05:32N 53°55' E 007°52'0 0.1
2016-May-17 04:32N 53°55' E 007°52'0 0.0
2016-May-17 03:29N 53°55' E 007°52'0 0.1
2016-May-17 02:29N 53°55' E 007°52'0 0.1
2016-May-17 01:32N 53°55' E 007°52'0 0.0
2016-May-17 00:32N 53°55' E 007°52'0 0.0
2016-May-16 23:32N 53°55' E 007°52'0 0.0
2016-May-16 22:32N 53°55' E 007°52'0 0.1
2016-May-16 21:32N 53°55' E 007°52'0 0.0
2016-May-16 20:32N 53°55' E 007°52'0 0.1
2016-May-16 19:20N 53°55' E 007°52'0 0.1
2016-May-16 18:32N 53°55' E 007°52'0 0.0
2016-May-16 17:32N 53°55' E 007°52'0 0.0
2016-May-16 16:32N 53°55' E 007°52'  
Track history (hours):
 
Tides and Currents Weather Stations Pressure Air Temp Water Temp Dewpoint Dewpoint Depression Visibility Wind Speed Wind Dir Waves Ship Positions

Tombarra

Last reported at 2016-May-26 16:23 UTC. Time now 2016-May-29 03:56 UTC.
Position N 49°43' W 007°25'.

Length 199 m; draft 10.5 m.

Type: Ship. MMSI: 232971000.

Date/timePositionNaut miles runAvg speedWind from/ knotsBaromVisibWave heightAir tempDewpointWater temp
2016-May-26 16:23N 49°43' W 007°25'8416.5
2016-May-26 11:19N 49°43' W 005°16'1417.5
2016-May-26 10:31N 49°44' W 004°54'1717.4
2016-May-26 09:33N 49°49' W 004°29'1717.0
2016-May-26 08:33N 49°54' W 004°04'1616.4
2016-May-26 07:34N 49°59' W 003°40'1716.8
2016-May-26 06:34N 50°04' W 003°15'1818.0
2016-May-26 05:33N 50°09' W 002°48'6020.1
2016-May-26 02:33N 50°28' W 001°18'1616.2
2016-May-26 01:34N 50°38' W 000°58'9 9.4
2016-May-26 00:33N 50°45' W 001°08'9 9.1
2016-May-25 23:33N 50°50' W 001°20'4 3.7
2016-May-25 22:32N 50°53' W 001°24'0 0.0
2016-May-25 16:32N 50°53' W 001°24'0 0.0
2016-May-25 15:32N 50°53' W 001°24'0 0.0
2016-May-25 14:32N 50°53' W 001°24'0 0.0
2016-May-25 13:23N 50°53' W 001°24'0 0.0
2016-May-25 12:20N 50°53' W 001°24'0 0.0
2016-May-25 08:20N 50°53' W 001°24'0 0.0
2016-May-25 07:26N 50°53' W 001°24'0 0.6
2016-May-25 06:33N 50°53' W 001°23'6 6.0
2016-May-25 05:33N 50°48' W 001°18'1111.2
2016-May-25 04:34N 50°44' W 001°02'8 8.5
2016-May-25 03:33N 50°36' W 000°55'1111.0
2016-May-25 02:33N 50°34' W 000°38'1212.0
2016-May-25 01:33N 50°32' W 000°19'1111.5
2016-May-25 00:33N 50°32' W 000°01'1211.8
2016-May-24 23:33N 50°34' E 000°17'1211.6
2016-May-24 22:32N 50°38' E 000°35'2311.5
2016-May-24 20:32N 50°51' E 001°05'1212.5
2016-May-24 19:33N 50°59' E 001°19'1515.0
2016-May-24 18:33N 51°09' E 001°37'1515.1
2016-May-24 17:33N 51°20' E 001°53'1111.3
2016-May-24 16:33N 51°22' E 002°11'1313.2
2016-May-24 15:32N 51°23' E 002°33'1212.1
2016-May-24 14:33N 51°22' E 002°52'1212.4
2016-May-24 13:34N 51°22' E 003°11'2 2.0
2016-May-24 12:34N 51°20' E 003°13'1 1.1
2016-May-24 11:33N 51°19' E 003°14'0 0.0
2016-May-24 10:33N 51°19' E 003°14'0 0.0
2016-May-24 09:33N 51°19' E 003°14'0 0.0
2016-May-24 08:33N 51°19' E 003°14'0 0.0
2016-May-24 07:33N 51°19' E 003°14'0 0.0
2016-May-24 06:33N 51°19' E 003°14'0 0.0
2016-May-24 05:33N 51°19' E 003°14'0 0.0
2016-May-24 04:33N 51°19' E 003°14'0 0.0
2016-May-24 03:33N 51°19' E 003°14'0 0.0
2016-May-24 02:33N 51°19' E 003°14'0 0.0
2016-May-24 01:33N 51°19' E 003°14'0 0.0
2016-May-24 00:33N 51°19' E 003°14'0 0.0
2016-May-23 23:33N 51°19' E 003°14'0 0.0
2016-May-23 22:33N 51°19' E 003°14'0 0.0
2016-May-23 21:33N 51°19' E 003°14'0 0.0
2016-May-23 20:33N 51°19' E 003°14'0 0.0
2016-May-23 19:33N 51°19' E 003°14'0 0.0
2016-May-23 18:33N 51°19' E 003°14'0 0.0
2016-May-23 17:33N 51°19' E 003°14'0 0.0
2016-May-23 16:30N 51°19' E 003°14'0 0.0
2016-May-23 15:33N 51°19' E 003°14'0 0.0
2016-May-23 14:33N 51°19' E 003°14'0 0.0
2016-May-23 13:27N 51°19' E 003°14'0 0.0
2016-May-23 12:33N 51°19' E 003°14'0 0.0
2016-May-23 11:33N 51°19' E 003°14'0 0.0
2016-May-23 10:33N 51°19' E 003°14'1 1.1
2016-May-23 09:33N 51°20' E 003°13'0 0.2
2016-May-23 08:33N 51°20' E 003°13'1110.6
2016-May-23 07:34N 51°25' E 002°58'10 9.7
2016-May-23 06:33N 51°26' E 002°42'9 8.8
2016-May-23 05:31N 51°35' E 002°42'1010.1
2016-May-23 04:30N 51°45' E 002°45'1010.3
2016-May-23 03:33N 51°55' E 002°41'3510.7
2016-May-23 00:18N 52°23' E 003°14'1012.0
2016-May-22 23:29N 52°31' E 003°23'1213.1
2016-May-22 22:33N 52°41' E 003°35'1413.9
2016-May-22 21:33N 52°52' E 003°50'1613.8
2016-May-22 20:22N 53°03' E 004°10'1112.7
2016-May-22 19:32N 53°10' E 004°23'1313.3
2016-May-22 18:33N 53°23' E 004°31'1413.9
2016-May-22 17:33N 53°35' E 004°39'1414.4
2016-May-22 16:33N 53°49' E 004°47'1515.0
2016-May-22 15:32N 54°03' E 004°56'1515.2
2016-May-22 14:33N 54°17' E 005°05'27213.9
2016-May-21 19:03N 57°46' E 010°17'611.7
2016-May-21 18:34N 57°48' E 010°27'1211.6
2016-May-21 17:33N 57°49' E 010°49'1211.6
2016-May-21 16:34N 57°45' E 011°09'1312.6
2016-May-21 15:33N 57°38' E 011°29'10 9.8
2016-May-21 14:33N 57°41' E 011°47'3 2.8
2016-May-21 13:34N 57°41' E 011°52'0 0.0
2016-May-21 12:34N 57°41' E 011°52'0 0.0
2016-May-21 11:34N 57°41' E 011°52'0 0.0
2016-May-21 10:33N 57°41' E 011°52'0 0.0
2016-May-21 09:33N 57°41' E 011°52'0 0.0
2016-May-21 08:34N 57°41' E 011°52'0 0.0
2016-May-21 07:34N 57°41' E 011°52'0 0.0
2016-May-21 06:30N 57°41' E 011°52'0 0.0
2016-May-21 05:33N 57°41' E 011°52'0 0.0
2016-May-21 04:34N 57°41' E 011°52'0 0.0
2016-May-21 03:33N 57°41' E 011°52'0 0.0
2016-May-21 02:34N 57°41' E 011°52'0 0.0
2016-May-21 01:34N 57°41' E 011°52'0 0.0
2016-May-21 00:33N 57°41' E 011°52'0 0.0
2016-May-20 23:34N 57°41' E 011°52'0 0.0
2016-May-20 22:33N 57°41' E 011°52'0 0.0
2016-May-20 21:33N 57°41' E 011°52'0 0.0
2016-May-20 20:33N 57°41' E 011°52'0 0.0
2016-May-20 19:33N 57°41' E 011°52'0 0.0
2016-May-20 18:34N 57°41' E 011°52'0 0.0
2016-May-20 17:34N 57°41' E 011°52'0 0.0
2016-May-20 16:34N 57°41' E 011°52'0 0.0
2016-May-20 15:34N 57°41' E 011°52'0 0.0
2016-May-20 14:33N 57°41' E 011°52'0 0.0
2016-May-20 13:33N 57°41' E 011°52'0 0.0
2016-May-20 12:33N 57°41' E 011°52'4 3.9
2016-May-20 11:33N 57°39' E 011°46'1010.3
2016-May-20 10:33N 57°39' E 011°26'7 6.6
2016-May-20 09:33N 57°42' E 011°16'9 8.6
2016-May-20 08:33N 57°47' E 011°02'10 9.9
2016-May-20 07:33N 57°48' E 010°44'1010.4
2016-May-20 06:33N 57°47' E 010°24'1211.5
2016-May-20 05:33N 57°44' E 010°03'1211.7
2016-May-20 04:29N 57°39' E 009°42'1210.8
2016-May-20 03:20N 57°37' E 009°19'11610.7
2016-May-19 16:27N 55°59' E 007°23'1011.4
2016-May-19 15:33N 55°49' E 007°17'1111.4
2016-May-19 14:33N 55°39' E 007°10'1111.3
2016-May-19 13:33N 55°28' E 007°04'1111.1
2016-May-19 12:33N 55°17' E 007°00'1111.2
2016-May-19 11:33N 55°06' E 007°00'1211.5
2016-May-19 10:33N 54°54' E 007°00'1111.5
2016-May-19 09:33N 54°43' E 007°00'1111.3
2016-May-19 08:33N 54°33' E 007°09'1111.5
2016-May-19 07:33N 54°23' E 007°18'1111.4
2016-May-19 06:33N 54°13' E 007°28'1111.2
2016-May-19 05:33N 54°03' E 007°37'1111.2
2016-May-19 04:33N 53°53' E 007°46'1312.6
2016-May-19 03:34N 53°49' E 008°07'1515.2
2016-May-19 02:34N 53°39' E 008°25'7 6.6
2016-May-19 01:34N 53°34' E 008°33'0 0.4
2016-May-19 00:33N 53°35' E 008°33'0 0.0
2016-May-18 23:33N 53°35' E 008°33'0 0.0
2016-May-18 22:33N 53°35' E 008°33'0 0.0
2016-May-18 21:33N 53°35' E 008°33'0 0.0
2016-May-18 20:33N 53°35' E 008°33'0 0.0
2016-May-18 19:33N 53°35' E 008°33'0 0.0
2016-May-18 18:33N 53°35' E 008°33'0 0.0
2016-May-18 17:33N 53°35' E 008°33'0 0.0
2016-May-18 16:33N 53°35' E 008°33'0 0.0
2016-May-18 15:33N 53°35' E 008°33'0 0.0
2016-May-18 14:33N 53°35' E 008°33'0 0.0
2016-May-18 13:33N 53°35' E 008°33'0 0.0
2016-May-18 12:33N 53°35' E 008°33'0 0.0
2016-May-18 11:33N 53°35' E 008°33'0 0.0
2016-May-18 10:33N 53°35' E 008°33'0 0.0
2016-May-18 09:33N 53°35' E 008°33'0 0.0
2016-May-18 08:33N 53°35' E 008°33'0 0.0
2016-May-18 07:33N 53°35' E 008°33'0 0.0
2016-May-18 06:33N 53°35' E 008°33'0 0.0
2016-May-18 05:33N 53°35' E 008°33'0 0.0
2016-May-18 04:33N 53°35' E 008°33'0 0.0
2016-May-18 03:33N 53°35' E 008°33'0 0.0
2016-May-18 02:33N 53°35' E 008°33'0 0.0
2016-May-18 01:33N 53°35' E 008°33'0 0.0
2016-May-18 00:33N 53°35' E 008°33'0 0.0
2016-May-17 23:33N 53°35' E 008°33'0 0.0
2016-May-17 22:33N 53°35' E 008°33'0 0.3
2016-May-17 21:33N 53°34' E 008°33'1 0.5
2016-May-17 20:33N 53°34' E 008°33'1211.8
2016-May-17 19:33N 53°42' E 008°19'1514.9
2016-May-17 18:33N 53°51' E 007°59'9 9.0
2016-May-17 17:33N 53°53' E 007°44'5 4.7
2016-May-17 16:29N 53°55' E 007°52'0 0.1
2016-May-17 15:32N 53°55' E 007°52'0 0.0
2016-May-17 14:29N 53°55' E 007°52'0 0.0
2016-May-17 13:32N 53°55' E 007°52'0 0.0
2016-May-17 12:32N 53°55' E 007°52'0 0.0
2016-May-17 11:29N 53°55' E 007°52'0 0.0
2016-May-17 10:32N 53°55' E 007°52'0 0.0
2016-May-17 09:32N 53°55' E 007°52'0 0.0
2016-May-17 08:32N 53°55' E 007°52'0 0.0
2016-May-17 07:32N 53°55' E 007°52'0 0.0
2016-May-17 06:32N 53°55' E 007°52'0 0.0
2016-May-17 05:32N 53°55' E 007°52'0 0.1
2016-May-17 04:32N 53°55' E 007°52'0 0.0
2016-May-17 03:29N 53°55' E 007°52'0 0.1
2016-May-17 02:29N 53°55' E 007°52'0 0.1
2016-May-17 01:32N 53°55' E 007°52'0 0.0
2016-May-17 00:32N 53°55' E 007°52'0 0.0
2016-May-16 23:32N 53°55' E 007°52'0 0.0
2016-May-16 22:32N 53°55' E 007°52'0 0.1
2016-May-16 21:32N 53°55' E 007°52'0 0.0
2016-May-16 20:32N 53°55' E 007°52'0 0.1
2016-May-16 19:20N 53°55' E 007°52'0 0.1
2016-May-16 18:32N 53°55' E 007°52'0 0.0
2016-May-16 17:32N 53°55' E 007°52'0 0.0
2016-May-16 16:32N 53°55' E 007°52'  

Dump ship's entire track history